Time;durP1;ratioP1;P1;durP2;ratioP2;P2;SDS_P1;SDS_P2;PMS_P1;PMS_P2;Temp;Humidity;BMP_temperature;BMP_pressure;BME280_temperature;BME280_humidity;BME280_pressure;Samples;Min_cycle;Max_cycle;Signal;HPM_P1;HPM_P2
2023/08/29 00:01:58;;;;;;;1.85;0.70;;;20.80;65.60;;;;;;5052652;28;20221;-72
2023/08/29 00:04:23;;;;;;;0.80;0.80;;;20.80;65.60;;;;;;5053445;28;20613;-71
2023/08/29 00:06:49;;;;;;;0.80;0.57;;;20.80;65.60;;;;;;5053208;28;20701;-72
2023/08/29 00:09:14;;;;;;;1.20;0.60;;;20.80;65.60;;;;;;5052287;28;20175;-71
2023/08/29 00:11:40;;;;;;;0.60;0.60;;;20.80;65.70;;;;;;5052746;28;20265;-70
2023/08/29 00:14:05;;;;;;;0.73;0.60;;;20.80;65.60;;;;;;5053161;28;20179;-69
2023/08/29 00:16:31;;;;;;;0.63;0.50;;;20.80;65.70;;;;;;5052432;28;20175;-69
2023/08/29 00:18:57;;;;;;;0.60;0.60;;;20.80;65.70;;;;;;5053449;28;20514;-69
2023/08/29 00:21:22;;;;;;;0.63;0.60;;;20.80;65.70;;;;;;5052828;28;20183;-70
2023/08/29 00:23:48;;;;;;;0.80;0.55;;;20.70;65.60;;;;;;5052361;28;20175;-70
2023/08/29 00:26:14;;;;;;;1.38;0.52;;;20.80;65.60;;;;;;5052614;28;20290;-70
2023/08/29 00:28:40;;;;;;;1.00;0.63;;;20.70;65.60;;;;;;5053208;28;20171;-70
2023/08/29 00:31:06;;;;;;;0.70;0.70;;;20.70;65.60;;;;;;5052099;28;20578;-71
2023/08/29 00:33:31;;;;;;;0.77;0.77;;;20.70;65.60;;;;;;5053001;28;20728;-73
2023/08/29 00:35:57;;;;;;;0.60;0.60;;;20.70;65.60;;;;;;5052777;28;20719;-72
2023/08/29 00:38:22;;;;;;;0.70;0.70;;;20.80;66.50;;;;;;5052333;28;20171;-71
2023/08/29 00:40:48;;;;;;;0.65;0.60;;;20.70;65.60;;;;;;5052660;28;20171;-71
2023/08/29 00:43:14;;;;;;;0.80;0.80;;;20.70;65.60;;;;;;5052678;28;20178;-70
2023/08/29 00:45:39;;;;;;;1.80;0.60;;;20.70;65.60;;;;;;5051964;28;20718;-71
2023/08/29 00:48:06;;;;;;;0.90;0.57;;;20.70;65.60;;;;;;5051279;28;20258;-71
2023/08/29 00:50:31;;;;;;;0.80;0.80;;;20.70;65.60;;;;;;5051517;28;20179;-70
2023/08/29 00:52:58;;;;;;;0.98;0.43;;;20.70;65.60;;;;;;5051112;28;20171;-70
2023/08/29 00:55:27;;;;;;;0.70;0.70;;;20.70;65.60;;;;;;5052864;28;20225;-69
2023/08/29 00:57:56;;;;;;;0.60;0.60;;;20.70;65.60;;;;;;5050848;28;20225;-71
2023/08/29 01:00:27;;;;;;;1.05;0.60;;;20.70;65.60;;;;;;5052400;28;20261;-71
2023/08/29 01:02:53;;;;;;;1.00;0.70;;;20.70;65.50;;;;;;5052597;28;20221;-72
2023/08/29 01:05:21;;;;;;;0.43;0.43;;;20.70;65.60;;;;;;5051484;28;20219;-72
2023/08/29 01:07:51;;;;;;;0.60;0.60;;;20.70;65.70;;;;;;5052772;28;20270;-72
2023/08/29 01:10:17;;;;;;;0.68;0.68;;;20.70;65.60;;;;;;5050986;28;20645;-71
2023/08/29 01:12:53;;;;;;;0.60;0.60;;;20.60;65.50;;;;;;5051938;28;20171;-70
2023/08/29 01:15:23;;;;;;;0.70;0.70;;;20.70;65.60;;;;;;5051034;28;20175;-70
2023/08/29 01:17:52;;;;;;;0.52;0.50;;;20.70;65.60;;;;;;5051251;28;20673;-70
2023/08/29 01:20:18;;;;;;;0.63;0.47;;;20.60;65.60;;;;;;5051258;28;20210;-69
2023/08/29 01:22:58;;;;;;;0.50;0.50;;;20.70;65.60;;;;;;5053593;28;20167;-70
2023/08/29 01:25:29;;;;;;;0.50;0.50;;;20.60;65.60;;;;;;5056561;28;20250;-70
2023/08/29 01:27:55;;;;;;;0.60;0.60;;;20.70;65.60;;;;;;5054643;28;20183;-71
2023/08/29 01:30:21;;;;;;;0.73;0.68;;;20.60;65.60;;;;;;5054757;28;20179;-70
2023/08/29 01:32:47;;;;;;;0.70;0.70;;;20.60;66.40;;;;;;5055294;28;20176;-72
2023/08/29 01:35:13;;;;;;;0.77;0.60;;;20.50;65.50;;;;;;5055450;28;20173;-72
2023/08/29 01:37:39;;;;;;;0.57;0.50;;;20.60;65.60;;;;;;5056332;28;20183;-72
2023/08/29 01:40:06;;;;;;;0.77;0.70;;;20.60;65.70;;;;;;5055423;28;20182;-71
2023/08/29 01:42:32;;;;;;;1.05;0.50;;;20.60;65.60;;;;;;5056073;28;20193;-70
2023/08/29 01:44:57;;;;;;;0.88;0.70;;;20.60;65.60;;;;;;5055758;28;20716;-71
2023/08/29 01:47:23;;;;;;;1.23;0.68;;;20.60;65.50;;;;;;5055399;28;20611;-70
2023/08/29 01:49:49;;;;;;;1.13;0.57;;;20.60;65.60;;;;;;5056128;28;20172;-71
2023/08/29 01:52:14;;;;;;;0.60;0.60;;;20.60;65.60;;;;;;5054476;28;20579;-69
2023/08/29 01:54:40;;;;;;;1.25;0.80;;;20.60;65.60;;;;;;5054136;28;20178;-70
2023/08/29 01:57:05;;;;;;;0.45;0.45;;;20.60;65.60;;;;;;5054372;28;20171;-70
2023/08/29 01:59:31;;;;;;;0.55;0.55;;;20.60;65.50;;;;;;5055745;28;20168;-72
2023/08/29 02:01:57;;;;;;;0.70;0.70;;;20.60;65.60;;;;;;5054058;28;20171;-73
2023/08/29 02:04:23;;;;;;;0.70;0.70;;;20.60;65.60;;;;;;5055614;28;20677;-72
2023/08/29 02:06:49;;;;;;;1.00;0.90;;;20.50;65.50;;;;;;5055559;28;20302;-72
2023/08/29 02:09:14;;;;;;;0.77;0.60;;;20.50;65.50;;;;;;5054712;28;20175;-71
2023/08/29 02:11:40;;;;;;;0.75;0.60;;;20.50;65.50;;;;;;5055564;28;20235;-70
2023/08/29 02:14:07;;;;;;;0.68;0.57;;;20.50;65.50;;;;;;5055059;28;20180;-70
2023/08/29 02:16:32;;;;;;;0.52;0.52;;;20.50;65.50;;;;;;5054718;28;20533;-69
2023/08/29 02:18:58;;;;;;;0.70;0.70;;;20.50;65.50;;;;;;5055146;28;20194;-70
2023/08/29 02:21:23;;;;;;;0.57;0.57;;;20.50;65.50;;;;;;5055395;28;20175;-69
2023/08/29 02:23:49;;;;;;;0.85;0.60;;;20.50;65.50;;;;;;5054926;28;20642;-70
2023/08/29 02:26:14;;;;;;;0.93;0.70;;;20.50;65.50;;;;;;5055127;28;20704;-70
2023/08/29 02:28:40;;;;;;;1.08;0.80;;;20.50;65.50;;;;;;5055169;28;20604;-70
2023/08/29 02:31:08;;;;;;;0.75;0.63;;;20.50;65.50;;;;;;5054382;28;20540;-71
2023/08/29 02:33:35;;;;;;;1.60;0.70;;;20.50;65.50;;;;;;5054508;28;20651;-71
2023/08/29 02:36:00;;;;;;;0.50;0.50;;;20.50;65.50;;;;;;5055031;28;20232;-72
2023/08/29 02:38:26;;;;;;;0.77;0.70;;;20.50;65.50;;;;;;5054299;28;20167;-70
2023/08/29 02:40:51;;;;;;;0.95;0.70;;;20.50;65.50;;;;;;5054925;28;20258;-71
2023/08/29 02:43:17;;;;;;;1.38;0.73;;;20.50;65.50;;;;;;5053792;28;20185;-70
2023/08/29 02:45:42;;;;;;;0.40;0.40;;;20.50;65.50;;;;;;5054673;28;20227;-71
2023/08/29 02:48:09;;;;;;;1.60;0.93;;;20.50;65.50;;;;;;5054493;28;20185;-71
2023/08/29 02:50:36;;;;;;;0.73;0.70;;;20.50;65.50;;;;;;5054300;28;20179;-70
2023/08/29 02:53:01;;;;;;;1.00;0.60;;;20.50;65.50;;;;;;5054700;28;20552;-69
2023/08/29 02:55:27;;;;;;;0.93;0.60;;;20.50;65.50;;;;;;5054635;28;20634;-70
2023/08/29 02:57:52;;;;;;;0.70;0.70;;;20.50;65.50;;;;;;5053925;28;20278;-70
2023/08/29 03:00:18;;;;;;;0.52;0.52;;;20.50;65.50;;;;;;5054573;28;20249;-70
2023/08/29 03:02:44;;;;;;;0.90;0.60;;;20.50;65.50;;;;;;5054738;28;20187;-72
2023/08/29 03:05:09;;;;;;;0.60;0.57;;;20.50;65.50;;;;;;5053448;28;20203;-72
2023/08/29 03:07:35;;;;;;;0.63;0.63;;;20.40;65.50;;;;;;5054463;28;20308;-72
2023/08/29 03:10:00;;;;;;;0.73;0.73;;;20.50;65.60;;;;;;5054323;28;20179;-71
2023/08/29 03:12:26;;;;;;;0.82;0.55;;;20.40;65.50;;;;;;5053487;28;20183;-69
2023/08/29 03:14:54;;;;;;;0.70;0.70;;;20.50;66.40;;;;;;5054423;28;20262;-69
2023/08/29 03:17:21;;;;;;;0.65;0.63;;;20.50;65.50;;;;;;5054015;28;20638;-69
2023/08/29 03:19:47;;;;;;;0.50;0.50;;;20.40;65.50;;;;;;5053458;28;20206;-70
2023/08/29 03:22:13;;;;;;;0.47;0.47;;;20.40;65.50;;;;;;5053948;28;20645;-70
2023/08/29 03:24:38;;;;;;;0.55;0.55;;;20.40;65.60;;;;;;5054048;28;20175;-70
2023/08/29 03:27:04;;;;;;;0.47;0.47;;;20.40;65.60;;;;;;5053269;28;20615;-70
2023/08/29 03:29:30;;;;;;;1.55;0.68;;;20.40;66.40;;;;;;5054219;28;20183;-70
2023/08/29 03:31:55;;;;;;;0.80;0.50;;;20.40;65.50;;;;;;5054262;28;20182;-72
2023/08/29 03:34:21;;;;;;;0.50;0.50;;;20.40;65.50;;;;;;5053077;28;20179;-71
2023/08/29 03:36:46;;;;;;;0.50;0.50;;;20.40;65.50;;;;;;5053990;28;20167;-71
2023/08/29 03:39:12;;;;;;;0.50;0.43;;;20.40;65.50;;;;;;5053527;28;20171;-71
2023/08/29 03:41:38;;;;;;;0.65;0.65;;;20.40;65.50;;;;;;5053175;28;20197;-70
2023/08/29 03:44:04;;;;;;;1.15;0.60;;;20.40;65.40;;;;;;5053630;28;20181;-70
2023/08/29 03:46:29;;;;;;;0.70;0.70;;;20.40;65.50;;;;;;5052872;28;20215;-70
2023/08/29 03:48:55;;;;;;;0.60;0.60;;;20.40;65.60;;;;;;5053099;28;20262;-71
2023/08/29 03:51:20;;;;;;;0.50;0.50;;;20.40;65.50;;;;;;5053484;28;20179;-70
2023/08/29 03:53:46;;;;;;;1.17;0.60;;;20.40;65.50;;;;;;5052948;28;20262;-69
2023/08/29 03:56:12;;;;;;;0.50;0.50;;;20.40;65.60;;;;;;5053191;28;20221;-70
2023/08/29 03:58:37;;;;;;;0.88;0.80;;;20.40;65.50;;;;;;5053454;28;20216;-69
2023/08/29 04:01:03;;;;;;;0.63;0.60;;;20.40;65.50;;;;;;5052571;28;20183;-71
2023/08/29 04:03:30;;;;;;;0.90;0.60;;;20.40;65.50;;;;;;5053544;28;20221;-72
2023/08/29 04:05:56;;;;;;;0.50;0.50;;;20.30;65.40;;;;;;5053547;28;20215;-73
2023/08/29 04:08:22;;;;;;;0.70;0.70;;;20.40;65.50;;;;;;5052291;28;20221;-71
2023/08/29 04:10:47;;;;;;;0.70;0.70;;;20.40;65.50;;;;;;5053420;28;20224;-70
2023/08/29 04:13:13;;;;;;;1.10;0.75;;;20.30;65.40;;;;;;5053214;28;20186;-69
2023/08/29 04:15:38;;;;;;;0.57;0.57;;;20.30;65.50;;;;;;5052507;28;20175;-69
2023/08/29 04:18:05;;;;;;;0.57;0.57;;;20.30;65.40;;;;;;5053113;28;20171;-69
2023/08/29 04:20:31;;;;;;;0.98;0.70;;;20.30;65.50;;;;;;5053124;28;20756;-69
2023/08/29 04:22:57;;;;;;;0.60;0.60;;;20.30;66.20;;;;;;5052373;28;20171;-70
2023/08/29 04:25:26;;;;;;;0.80;0.73;;;20.30;65.50;;;;;;5052876;28;20210;-69
2023/08/29 04:27:53;;;;;;;0.68;0.60;;;20.30;65.40;;;;;;5053310;28;20171;-70
2023/08/29 04:30:18;;;;;;;1.33;0.60;;;20.30;65.40;;;;;;5052227;28;20175;-70
2023/08/29 04:32:44;;;;;;;0.63;0.63;;;20.30;65.40;;;;;;5053009;28;20588;-72
2023/08/29 04:35:10;;;;;;;0.80;0.50;;;20.30;65.40;;;;;;5052739;28;20167;-71
2023/08/29 04:37:36;;;;;;;0.70;0.70;;;20.30;65.40;;;;;;5052180;28;20267;-70
2023/08/29 04:40:06;;;;;;;0.88;0.60;;;20.30;65.50;;;;;;5052914;28;20258;-71
2023/08/29 04:42:32;;;;;;;0.70;0.70;;;20.30;65.30;;;;;;5053003;28;20175;-69
2023/08/29 04:44:58;;;;;;;0.50;0.40;;;20.30;65.40;;;;;;5051585;28;20230;-70
2023/08/29 04:47:23;;;;;;;2.47;0.70;;;20.30;66.30;;;;;;5052789;28;20175;-70
2023/08/29 04:49:49;;;;;;;0.75;0.75;;;20.30;65.30;;;;;;5052932;28;20631;-69
2023/08/29 04:52:14;;;;;;;0.98;0.60;;;20.30;65.40;;;;;;5052200;28;20171;-68
2023/08/29 04:54:40;;;;;;;0.90;0.80;;;20.30;65.40;;;;;;5053024;28;20174;-69
2023/08/29 04:57:05;;;;;;;0.60;0.60;;;20.30;65.20;;;;;;5051638;28;20653;-70
2023/08/29 04:59:31;;;;;;;0.98;0.60;;;20.30;65.40;;;;;;5052794;28;20653;-69
2023/08/29 05:01:56;;;;;;;0.93;0.70;;;20.30;65.30;;;;;;5052762;28;20622;-71
2023/08/29 05:04:22;;;;;;;0.75;0.75;;;20.30;65.30;;;;;;5051640;28;20281;-71
2023/08/29 05:06:48;;;;;;;0.98;0.60;;;20.30;65.20;;;;;;5052441;28;20302;-71
2023/08/29 05:09:14;;;;;;;0.50;0.50;;;20.20;65.10;;;;;;5052499;28;20179;-71
2023/08/29 05:11:39;;;;;;;0.70;0.70;;;20.30;65.20;;;;;;5050967;28;20266;-70
2023/08/29 05:14:05;;;;;;;0.75;0.68;;;20.20;65.20;;;;;;5052492;28;20175;-70
2023/08/29 05:16:32;;;;;;;1.23;0.40;;;20.20;65.10;;;;;;5052597;28;20178;-68
2023/08/29 05:18:58;;;;;;;0.70;0.70;;;20.20;65.10;;;;;;5051803;28;20545;-69
2023/08/29 05:21:24;;;;;;;0.60;0.50;;;20.30;65.30;;;;;;5052459;28;20183;-70
2023/08/29 05:23:49;;;;;;;1.65;0.82;;;20.20;65.20;;;;;;5052402;28;20198;-69
2023/08/29 05:26:15;;;;;;;0.47;0.47;;;20.30;65.20;;;;;;5051525;28;20223;-69
2023/08/29 05:28:41;;;;;;;0.70;0.70;;;20.20;65.20;;;;;;5052565;28;20175;-70
2023/08/29 05:31:06;;;;;;;0.70;0.70;;;20.20;65.10;;;;;;5052005;28;20541;-71
2023/08/29 05:33:32;;;;;;;0.70;0.70;;;20.20;65.20;;;;;;5051706;28;20256;-72
2023/08/29 05:35:57;;;;;;;1.60;0.95;;;20.30;65.10;;;;;;5052008;28;20283;-73
2023/08/29 05:38:25;;;;;;;0.50;0.50;;;20.20;65.90;;;;;;5052263;28;20171;-71
2023/08/29 05:40:52;;;;;;;0.65;0.55;;;20.20;65.90;;;;;;5051794;28;20181;-72
2023/08/29 05:43:18;;;;;;;0.43;0.43;;;20.20;65.10;;;;;;5052038;28;20705;-70
2023/08/29 05:45:44;;;;;;;0.45;0.40;;;20.20;65.00;;;;;;5052114;28;20235;-71
2023/08/29 05:48:09;;;;;;;0.70;0.70;;;20.20;65.00;;;;;;5051290;28;20590;-71
2023/08/29 05:50:35;;;;;;;1.58;0.60;;;20.20;65.00;;;;;;5052215;28;20642;-70
2023/08/29 05:53:00;;;;;;;0.47;0.47;;;20.20;65.90;;;;;;5052182;28;20696;-70
2023/08/29 05:55:26;;;;;;;0.55;0.55;;;20.20;65.10;;;;;;5051311;28;20171;-70
2023/08/29 05:57:51;;;;;;;0.60;0.60;;;20.20;65.00;;;;;;5052220;28;20221;-70
2023/08/29 06:00:19;;;;;;;0.57;0.50;;;20.20;65.00;;;;;;5051167;28;20198;-71
2023/08/29 06:02:44;;;;;;;0.70;0.70;;;20.20;65.00;;;;;;5052112;28;20175;-72
2023/08/29 06:05:10;;;;;;;0.70;0.52;;;20.20;65.00;;;;;;5051586;28;20286;-72
2023/08/29 06:07:38;;;;;;;0.50;0.50;;;20.20;65.00;;;;;;5051504;28;20179;-73
2023/08/29 06:10:06;;;;;;;0.50;0.50;;;20.20;65.00;;;;;;5054643;28;20579;-72
2023/08/29 06:12:31;;;;;;;0.70;0.70;;;20.20;64.90;;;;;;5055712;28;20217;-68
2023/08/29 06:14:57;;;;;;;0.50;0.50;;;20.20;64.90;;;;;;5055002;28;20214;-70
2023/08/29 06:17:22;;;;;;;0.73;0.73;;;20.10;64.90;;;;;;5055182;28;20171;-69
2023/08/29 06:19:48;;;;;;;0.50;0.50;;;20.20;64.90;;;;;;5055337;28;20171;-69
2023/08/29 06:22:13;;;;;;;1.38;0.77;;;20.20;64.90;;;;;;5054641;28;20233;-69
2023/08/29 06:24:39;;;;;;;0.50;0.50;;;20.20;65.00;;;;;;5055305;28;20174;-70
2023/08/29 06:27:04;;;;;;;0.40;0.40;;;20.30;65.00;;;;;;5055143;28;20221;-69
2023/08/29 06:29:30;;;;;;;0.60;0.57;;;20.20;64.90;;;;;;5054476;28;20164;-70
2023/08/29 06:31:56;;;;;;;0.50;0.50;;;20.30;64.90;;;;;;5055424;28;20198;-71
2023/08/29 06:34:22;;;;;;;0.43;0.43;;;20.30;64.80;;;;;;5054842;28;20630;-70
2023/08/29 06:36:48;;;;;;;0.98;0.60;;;20.30;64.90;;;;;;5054424;28;20178;-71
2023/08/29 06:39:13;;;;;;;0.55;0.55;;;20.30;64.90;;;;;;5054749;28;20271;-71
2023/08/29 06:41:39;;;;;;;0.80;0.73;;;20.30;65.70;;;;;;5055322;28;20209;-70
2023/08/29 06:44:05;;;;;;;0.50;0.50;;;20.30;64.80;;;;;;5053906;28;20688;-69
2023/08/29 06:46:31;;;;;;;0.57;0.57;;;20.30;64.70;;;;;;5054875;28;20301;-70
2023/08/29 06:48:56;;;;;;;1.25;0.68;;;20.30;65.60;;;;;;5054787;28;20258;-69
2023/08/29 06:51:22;;;;;;;0.95;0.70;;;20.30;64.60;;;;;;5054035;28;20656;-70
2023/08/29 06:53:47;;;;;;;0.70;0.60;;;20.30;64.60;;;;;;5055004;28;20167;-69
2023/08/29 06:56:13;;;;;;;1.67;0.70;;;20.40;64.70;;;;;;5054548;28;20171;-69
2023/08/29 06:58:38;;;;;;;0.80;0.60;;;20.40;64.70;;;;;;5054188;28;20171;-70
2023/08/29 07:01:04;;;;;;;1.02;0.60;;;20.40;64.60;;;;;;5054534;28;20296;-71
2023/08/29 07:03:30;;;;;;;0.57;0.55;;;20.40;64.70;;;;;;5053754;28;20254;-71
2023/08/29 07:05:55;;;;;;;1.00;0.80;;;20.40;64.80;;;;;;5054682;28;20302;-72
2023/08/29 07:08:22;;;;;;;0.65;0.65;;;20.40;64.50;;;;;;5053133;28;20172;-72
2023/08/29 07:10:48;;;;;;;0.73;0.73;;;20.50;64.50;;;;;;5053840;28;20175;-70
2023/08/29 07:13:13;;;;;;;1.45;0.63;;;20.50;64.50;;;;;;5054269;28;20236;-68
2023/08/29 07:15:39;;;;;;;1.05;0.90;;;20.50;64.50;;;;;;5054435;28;20175;-68
2023/08/29 07:18:05;;;;;;;0.93;0.60;;;20.50;64.30;;;;;;5053398;28;20302;-68
2023/08/29 07:20:31;;;;;;;1.35;0.75;;;20.50;65.10;;;;;;5054385;28;20652;-68
2023/08/29 07:22:57;;;;;;;2.05;0.90;;;20.60;64.30;;;;;;5054408;28;20179;-68
2023/08/29 07:25:43;;;;;;;1.30;0.82;;;20.60;64.30;;;;;;5053382;28;20692;-68
2023/08/29 07:28:09;;;;;;;2.22;0.65;;;20.60;64.20;;;;;;5053845;28;20200;-68
2023/08/29 07:30:40;;;;;;;0.68;0.55;;;20.60;64.20;;;;;;5054154;28;20191;-69
2023/08/29 07:33:06;;;;;;;0.93;0.88;;;20.60;64.10;;;;;;5053061;28;20654;-72
2023/08/29 07:35:31;;;;;;;1.77;1.23;;;20.70;64.20;;;;;;5054163;28;20179;-71
2023/08/29 07:37:57;;;;;;;1.50;0.70;;;20.70;64.10;;;;;;5054052;28;20677;-70
2023/08/29 07:40:23;;;;;;;1.25;0.90;;;20.70;64.10;;;;;;5053107;28;20171;-68
2023/08/29 07:42:48;;;;;;;2.20;0.73;;;20.80;64.20;;;;;;5053859;28;20565;-69
2023/08/29 07:45:14;;;;;;;2.15;0.70;;;20.80;64.20;;;;;;5053192;28;20254;-70
2023/08/29 07:47:39;;;;;;;0.57;0.57;;;20.80;64.40;;;;;;5053260;28;20175;-71
2023/08/29 07:50:05;;;;;;;0.60;0.60;;;20.80;64.40;;;;;;5053719;28;20650;-69
2023/08/29 07:52:31;;;;;;;2.90;0.95;;;20.80;64.30;;;;;;5053863;28;20261;-68
2023/08/29 07:54:58;;;;;;;1.15;0.80;;;20.80;64.40;;;;;;5053028;28;20258;-71
2023/08/29 07:57:23;;;;;;;2.15;0.70;;;20.90;64.60;;;;;;5053522;28;20244;-68
2023/08/29 07:59:52;;;;;;;2.13;0.70;;;20.90;64.80;;;;;;5052756;28;20666;-71
2023/08/29 08:02:17;;;;;;;1.83;0.70;;;20.90;64.80;;;;;;5053155;28;20689;-70
2023/08/29 08:04:43;;;;;;;1.35;0.57;;;20.80;64.80;;;;;;5053630;28;20229;-70
2023/08/29 08:07:09;;;;;;;2.28;0.90;;;20.80;65.00;;;;;;5052246;28;20209;-70
2023/08/29 08:09:34;;;;;;;3.45;1.27;;;20.80;64.90;;;;;;5053332;28;20175;-67
2023/08/29 08:12:02;;;;;;;3.60;0.75;;;20.90;64.90;;;;;;5053162;28;20183;-67
2023/08/29 08:14:27;;;;;;;3.85;0.75;;;20.90;65.00;;;;;;5052546;28;20207;-66
2023/08/29 08:16:53;;;;;;;3.60;0.93;;;20.80;65.00;;;;;;5053558;28;20642;-67
2023/08/29 08:19:18;;;;;;;1.10;0.93;;;20.80;65.10;;;;;;5053064;28;20642;-67
2023/08/29 08:21:44;;;;;;;2.42;1.30;;;20.80;65.10;;;;;;5052587;28;20553;-66
2023/08/29 08:24:09;;;;;;;14.85;1.75;;;20.80;65.10;;;;;;5052888;28;20554;-70
2023/08/29 08:26:35;;;;;;;6.68;1.17;;;20.90;65.90;;;;;;5052722;28;20551;-71
2023/08/29 08:29:01;;;;;;;4.32;1.00;;;20.90;65.10;;;;;;5052117;28;20557;-70
2023/08/29 08:31:26;;;;;;;1.95;1.05;;;20.90;65.10;;;;;;5052401;28;20608;-72
2023/08/29 08:33:52;;;;;;;2.50;1.00;;;21.00;65.10;;;;;;5052886;28;20258;-71
2023/08/29 08:36:20;;;;;;;1.35;1.08;;;21.00;65.40;;;;;;5051900;28;20232;-69
2023/08/29 08:38:46;;;;;;;4.13;1.27;;;20.90;65.20;;;;;;5052897;28;20183;-68
2023/08/29 08:41:11;;;;;;;3.10;1.17;;;21.00;65.20;;;;;;5052423;28;20175;-67
2023/08/29 08:43:38;;;;;;;3.35;0.98;;;21.00;65.40;;;;;;5050745;28;20173;-67
2023/08/29 08:46:04;;;;;;;3.60;1.25;;;21.00;65.20;;;;;;5051194;28;20237;-69
2023/08/29 08:48:30;;;;;;;2.53;1.13;;;21.00;65.20;;;;;;5035263;28;20167;-67
2023/08/29 08:50:55;;;;;;;1.67;1.02;;;21.00;65.10;;;;;;5051242;28;20182;-66
2023/08/29 08:53:21;;;;;;;3.20;0.90;;;21.00;65.10;;;;;;5052352;28;20237;-66
2023/08/29 08:55:48;;;;;;;2.92;0.93;;;21.00;65.00;;;;;;5052667;28;20175;-66
2023/08/29 08:58:14;;;;;;;3.90;1.05;;;21.10;65.10;;;;;;5051578;28;20186;-66
2023/08/29 09:00:40;;;;;;;1.95;0.77;;;21.10;65.90;;;;;;5052647;28;20175;-67
2023/08/29 09:03:05;;;;;;;2.05;0.90;;;21.10;65.10;;;;;;5051806;28;20189;-67
2023/08/29 09:05:31;;;;;;;1.05;0.70;;;21.10;65.00;;;;;;5051155;28;20294;-67
2023/08/29 09:07:56;;;;;;;4.43;0.95;;;21.10;65.80;;;;;;5052740;28;20175;-66
2023/08/29 09:10:22;;;;;;;3.53;1.35;;;21.10;64.90;;;;;;5051680;28;20179;-65
2023/08/29 09:12:49;;;;;;;1.90;0.90;;;21.20;65.00;;;;;;5052387;28;20182;-66
2023/08/29 09:15:19;;;;;;;1.15;0.80;;;21.20;65.00;;;;;;5052147;28;20207;-66
2023/08/29 09:17:53;;;;;;;2.53;0.70;;;21.20;65.00;;;;;;5051939;28;20206;-65
2023/08/29 09:20:19;;;;;;;1.92;0.75;;;21.20;64.90;;;;;;5052168;28;20541;-66
2023/08/29 09:22:44;;;;;;;3.22;1.20;;;21.20;64.90;;;;;;5052511;28;20175;-66
2023/08/29 09:25:11;;;;;;;1.42;0.77;;;21.30;64.90;;;;;;5051211;28;20604;-66
2023/08/29 09:27:47;;;;;;;2.45;1.05;;;21.30;64.90;;;;;;5052649;28;20187;-66
2023/08/29 09:30:17;;;;;;;1.55;0.98;;;21.30;64.90;;;;;;5052376;28;20532;-66
2023/08/29 09:32:43;;;;;;;2.88;0.90;;;21.30;64.90;;;;;;5051871;28;20187;-72
2023/08/29 09:35:16;;;;;;;3.30;0.70;;;21.30;65.00;;;;;;5052068;28;20183;-70
2023/08/29 09:37:45;;;;;;;1.65;0.93;;;21.30;64.90;;;;;;5052309;28;20179;-69
2023/08/29 09:40:12;;;;;;;1.10;0.70;;;21.30;64.70;;;;;;5050029;28;20190;-69
2023/08/29 09:42:38;;;;;;;2.95;0.80;;;21.40;64.80;;;;;;5034704;28;20544;-68
2023/08/29 09:45:07;;;;;;;1.48;0.70;;;21.40;64.80;;;;;;5054598;28;20724;-68
2023/08/29 09:47:32;;;;;;;1.00;0.73;;;21.30;64.20;;;;;;5055201;28;20175;-68
2023/08/29 09:49:58;;;;;;;1.90;0.77;;;21.30;64.40;;;;;;5055890;28;20178;-68
2023/08/29 09:52:23;;;;;;;1.58;0.77;;;21.30;64.40;;;;;;5055081;28;20715;-67
2023/08/29 09:54:52;;;;;;;3.40;1.02;;;21.30;64.30;;;;;;5038362;28;20258;-67
2023/08/29 09:57:19;;;;;;;1.80;0.73;;;21.40;64.50;;;;;;5055681;28;20229;-67
2023/08/29 09:59:45;;;;;;;1.13;0.77;;;21.40;64.40;;;;;;5054598;28;20708;-70
2023/08/29 10:02:11;;;;;;;1.60;0.80;;;21.40;64.50;;;;;;5054904;28;20179;-68
2023/08/29 10:04:45;;;;;;;1.98;1.10;;;21.40;64.50;;;;;;5055468;28;20724;-70
2023/08/29 10:07:18;;;;;;;2.40;1.02;;;21.40;64.50;;;;;;5054794;28;20276;-69
2023/08/29 10:09:43;;;;;;;1.95;0.63;;;21.40;64.50;;;;;;5038588;28;20203;-68
2023/08/29 10:12:09;;;;;;;1.85;0.70;;;21.50;64.60;;;;;;5055379;28;20198;-67
2023/08/29 10:14:34;;;;;;;4.30;1.00;;;21.50;64.60;;;;;;5055074;28;20181;-66
2023/08/29 10:17:01;;;;;;;2.13;0.63;;;21.60;64.50;;;;;;5054153;28;20217;-67
2023/08/29 10:19:28;;;;;;;1.58;0.70;;;21.60;64.40;;;;;;5054191;28;20214;-66
2023/08/29 10:21:53;;;;;;;3.03;0.90;;;21.60;64.40;;;;;;5053509;28;20178;-67
2023/08/29 10:24:19;;;;;;;2.00;0.70;;;21.60;64.40;;;;;;5053949;28;20175;-67
2023/08/29 10:26:44;;;;;;;1.77;0.65;;;21.70;64.30;;;;;;5054187;28;20298;-68
2023/08/29 10:29:10;;;;;;;0.85;0.73;;;21.70;64.30;;;;;;5053164;28;20193;-68
2023/08/29 10:31:35;;;;;;;1.00;0.70;;;21.70;64.20;;;;;;5055287;28;20546;-68
2023/08/29 10:34:04;;;;;;;2.13;0.80;;;21.80;64.20;;;;;;5053750;28;20171;-68
2023/08/29 10:36:30;;;;;;;2.42;0.98;;;21.80;64.10;;;;;;5054550;28;20167;-69
2023/08/29 10:38:58;;;;;;;2.05;0.80;;;21.90;64.00;;;;;;5054892;28;20642;-69
2023/08/29 10:41:24;;;;;;;1.55;0.50;;;21.90;64.00;;;;;;5053817;28;20190;-68
2023/08/29 10:43:53;;;;;;;2.25;0.90;;;21.90;63.90;;;;;;5053030;28;20626;-68
2023/08/29 10:46:20;;;;;;;1.95;0.63;;;21.90;63.90;;;;;;5053818;28;20230;-71
2023/08/29 10:48:46;;;;;;;4.68;1.10;;;22.00;63.90;;;;;;5054206;28;20183;-68
2023/08/29 10:51:11;;;;;;;1.58;0.60;;;21.90;63.80;;;;;;5054379;28;20179;-68
2023/08/29 10:53:38;;;;;;;2.05;0.73;;;22.00;63.80;;;;;;5054875;28;20171;-68
2023/08/29 10:56:05;;;;;;;2.50;0.70;;;22.00;63.90;;;;;;5053412;28;20662;-70
2023/08/29 10:58:41;;;;;;;1.27;0.80;;;21.90;63.70;;;;;;5054752;28;20179;-67
2023/08/29 11:01:08;;;;;;;1.75;0.65;;;22.00;64.80;;;;;;5054262;28;20241;-69
2023/08/29 11:03:49;;;;;;;1.50;0.90;;;22.00;63.90;;;;;;5052932;28;20178;-69
2023/08/29 11:06:19;;;;;;;0.88;0.75;;;21.90;64.20;;;;;;5054165;28;20210;-69
2023/08/29 11:08:45;;;;;;;2.42;0.93;;;21.80;64.40;;;;;;5054632;28;20182;-69
2023/08/29 11:11:20;;;;;;;1.08;0.57;;;21.70;64.60;;;;;;5053553;28;20171;-68
2023/08/29 11:13:59;;;;;;;2.75;0.80;;;21.60;64.80;;;;;;5054479;28;20179;-68
2023/08/29 11:16:28;;;;;;;0.60;0.60;;;21.60;65.00;;;;;;5054542;28;20539;-66
2023/08/29 11:19:04;;;;;;;1.08;0.65;;;21.60;64.90;;;;;;5053627;28;20175;-68
2023/08/29 11:21:30;;;;;;;0.73;0.60;;;21.50;65.00;;;;;;5054390;28;20186;-67
2023/08/29 11:23:57;;;;;;;0.77;0.60;;;21.50;65.10;;;;;;5053544;28;20534;-68
2023/08/29 11:26:23;;;;;;;2.15;0.70;;;21.40;65.10;;;;;;5052726;28;20217;-67
2023/08/29 11:28:49;;;;;;;0.68;0.50;;;21.40;65.20;;;;;;5054336;28;20171;-67
2023/08/29 11:31:18;;;;;;;1.20;0.60;;;21.40;65.20;;;;;;5053144;28;20512;-68
2023/08/29 11:33:43;;;;;;;1.20;0.65;;;21.30;65.30;;;;;;5054199;28;20171;-69
2023/08/29 11:36:09;;;;;;;2.03;0.80;;;21.40;65.40;;;;;;5053774;28;20187;-70
2023/08/29 11:38:35;;;;;;;1.52;0.70;;;21.30;65.30;;;;;;5053377;28;20203;-69
2023/08/29 11:41:04;;;;;;;1.83;0.70;;;21.30;65.30;;;;;;5053585;28;20657;-68
2023/08/29 11:43:30;;;;;;;1.58;0.85;;;21.40;65.40;;;;;;5053762;28;20175;-68
2023/08/29 11:46:01;;;;;;;2.05;0.60;;;21.40;65.40;;;;;;5052954;28;20270;-68
2023/08/29 11:48:28;;;;;;;1.83;0.60;;;21.30;65.30;;;;;;5054056;28;20688;-67
2023/08/29 11:50:55;;;;;;;1.40;0.55;;;21.30;65.30;;;;;;5053837;28;20179;-68
2023/08/29 11:53:31;;;;;;;1.20;0.60;;;21.30;65.20;;;;;;5052784;28;20175;-67
2023/08/29 11:55:57;;;;;;;1.15;0.70;;;21.30;66.10;;;;;;5053637;28;20240;-68
2023/08/29 11:58:29;;;;;;;1.10;0.55;;;21.30;65.20;;;;;;5053669;28;20175;-68
2023/08/29 12:00:55;;;;;;;1.58;0.70;;;21.30;65.20;;;;;;5052881;28;20175;-70
2023/08/29 12:03:22;;;;;;;0.60;0.60;;;21.40;65.20;;;;;;5053178;28;20233;-69
2023/08/29 12:05:48;;;;;;;1.92;0.90;;;21.40;65.20;;;;;;5053196;28;20219;-69
2023/08/29 12:08:14;;;;;;;0.75;0.60;;;21.40;65.20;;;;;;5052080;28;20171;-69
2023/08/29 12:10:50;;;;;;;0.88;0.85;;;21.40;65.00;;;;;;5053368;28;20703;-69
2023/08/29 12:13:16;;;;;;;1.50;0.68;;;21.40;65.80;;;;;;5052389;28;20209;-67
2023/08/29 12:15:41;;;;;;;2.03;0.80;;;21.50;65.00;;;;;;5053308;28;20293;-67
2023/08/29 12:18:07;;;;;;;2.13;0.95;;;21.40;64.90;;;;;;5052735;28;20178;-67
2023/08/29 12:20:35;;;;;;;0.60;0.60;;;21.50;64.90;;;;;;5052431;28;20179;-67
2023/08/29 12:23:00;;;;;;;1.27;0.80;;;21.40;64.90;;;;;;5053213;28;20220;-68
2023/08/29 12:25:26;;;;;;;1.00;0.70;;;21.50;64.90;;;;;;5053082;28;20281;-68
2023/08/29 12:27:52;;;;;;;0.57;0.45;;;21.50;64.90;;;;;;5052508;28;20258;-68
2023/08/29 12:30:18;;;;;;;0.50;0.50;;;21.50;64.90;;;;;;5052611;28;20179;-68
2023/08/29 12:32:44;;;;;;;1.52;0.77;;;21.50;64.80;;;;;;5052942;28;20179;-69
2023/08/29 12:35:10;;;;;;;0.75;0.70;;;21.50;64.70;;;;;;5051871;28;20645;-69
2023/08/29 12:37:36;;;;;;;1.30;0.60;;;21.50;64.60;;;;;;5053132;28;20195;-70
2023/08/29 12:40:04;;;;;;;0.60;0.60;;;21.50;64.70;;;;;;5052670;28;20167;-69
2023/08/29 12:42:30;;;;;;;1.13;0.50;;;21.60;64.60;;;;;;5052153;28;20638;-68
2023/08/29 12:44:56;;;;;;;0.50;0.50;;;21.70;64.40;;;;;;5052633;28;20225;-69